Time;durP1;ratioP1;P1;durP2;ratioP2;P2;SDS_P1;SDS_P2;PMS_P1;PMS_P2;Temp;Humidity;BMP_temperature;BMP_pressure;BME280_temperature;BME280_humidity;BME280_pressure;Samples;Min_cycle;Max_cycle;Signal;HPM_P1;HPM_P2
2023/07/18 00:01:33;;;;;;;4.68;3.35;;;19.20;99.40;;;;;;5033997;28;20033;-52
2023/07/18 00:03:58;;;;;;;5.60;3.38;;;19.20;99.70;;;;;;5032742;28;20564;-55
2023/07/18 00:06:24;;;;;;;9.38;4.00;;;19.10;99.80;;;;;;5033570;28;20026;-54
2023/07/18 00:08:50;;;;;;;4.80;2.60;;;19.10;99.90;;;;;;5032807;28;20026;-55
2023/07/18 00:11:16;;;;;;;5.63;3.00;;;19.00;99.90;;;;;;5033865;28;20457;-50
2023/07/18 00:13:42;;;;;;;8.45;3.20;;;19.00;99.90;;;;;;5033777;28;20117;-52
2023/07/18 00:16:08;;;;;;;7.15;3.90;;;19.00;99.90;;;;;;5033489;28;20061;-54
2023/07/18 00:18:34;;;;;;;7.07;3.60;;;19.10;99.90;;;;;;5033197;28;20013;-55
2023/07/18 00:20:59;;;;;;;5.78;2.78;;;19.10;99.80;;;;;;5033636;28;20044;-55
2023/07/18 00:23:25;;;;;;;7.32;3.25;;;19.20;99.90;;;;;;5033638;28;20448;-55
2023/07/18 00:25:50;;;;;;;10.35;3.47;;;19.10;99.90;;;;;;5033442;28;20432;-53
2023/07/18 00:28:16;;;;;;;4.88;3.85;;;19.10;99.90;;;;;;5033341;28;20025;-54
2023/07/18 00:30:42;;;;;;;5.30;3.10;;;19.00;99.90;;;;;;5032683;28;20389;-52
2023/07/18 00:33:07;;;;;;;6.18;2.83;;;18.80;99.90;;;;;;5033359;28;20497;-55
2023/07/18 00:35:34;;;;;;;5.88;3.47;;;18.80;99.90;;;;;;5033220;28;20032;-56
2023/07/18 00:38:00;;;;;;;9.50;3.58;;;18.60;99.90;;;;;;5031747;28;20500;-53
2023/07/18 00:40:25;;;;;;;4.70;3.28;;;18.60;99.90;;;;;;5033281;28;20104;-52
2023/07/18 00:42:51;;;;;;;7.13;3.55;;;18.50;99.90;;;;;;5033281;28;20044;-55
2023/07/18 00:45:17;;;;;;;10.02;3.22;;;18.60;99.90;;;;;;5033136;28;20033;-49
2023/07/18 00:47:45;;;;;;;6.80;2.67;;;18.50;99.90;;;;;;5032777;28;20037;-56
2023/07/18 00:50:15;;;;;;;6.55;2.97;;;18.50;99.90;;;;;;5033141;28;20049;-55
2023/07/18 00:52:52;;;;;;;10.98;3.22;;;18.40;99.90;;;;;;5033148;28;20025;-52
2023/07/18 00:55:19;;;;;;;6.05;2.78;;;18.30;99.90;;;;;;5032944;28;20577;-55
2023/07/18 00:57:46;;;;;;;5.45;2.95;;;18.30;99.90;;;;;;5032654;28;20063;-52
2023/07/18 01:00:13;;;;;;;4.85;3.25;;;18.20;99.90;;;;;;5033002;28;20025;-54
2023/07/18 01:02:40;;;;;;;6.10;3.17;;;18.20;99.90;;;;;;5031713;28;20389;-51
2023/07/18 01:05:07;;;;;;;11.13;3.33;;;18.20;99.90;;;;;;5033164;28;20037;-54
2023/07/18 01:07:34;;;;;;;5.57;2.90;;;18.10;99.90;;;;;;5031543;28;20529;-54
2023/07/18 01:10:23;;;;;;;7.45;3.33;;;18.10;99.90;;;;;;5032760;28;20030;-51
2023/07/18 01:12:50;;;;;;;6.60;3.63;;;18.00;99.90;;;;;;5032565;28;20072;-53
2023/07/18 01:15:16;;;;;;;9.82;3.40;;;18.00;99.90;;;;;;5032795;28;20056;-53
2023/07/18 01:17:44;;;;;;;8.52;3.65;;;17.90;99.90;;;;;;5032235;28;20388;-54
2023/07/18 01:20:14;;;;;;;8.27;3.53;;;17.90;99.90;;;;;;5032479;28;20079;-50
2023/07/18 01:22:39;;;;;;;4.10;2.97;;;17.90;99.90;;;;;;5032535;28;20044;-56
2023/07/18 01:25:05;;;;;;;4.68;3.22;;;17.90;99.90;;;;;;5032686;28;20030;-53
2023/07/18 01:27:31;;;;;;;4.90;2.97;;;17.80;99.90;;;;;;5034081;28;20542;-51
2023/07/18 01:29:57;;;;;;;7.88;3.78;;;17.80;99.90;;;;;;5031226;28;20025;-55
2023/07/18 01:32:22;;;;;;;4.95;3.35;;;17.80;99.90;;;;;;5032523;28;20033;-54
2023/07/18 01:34:48;;;;;;;8.75;3.50;;;17.70;99.90;;;;;;5032567;28;20515;-51
2023/07/18 01:37:15;;;;;;;7.30;3.50;;;17.70;99.90;;;;;;5031954;28;20512;-53
2023/07/18 01:39:41;;;;;;;5.40;3.22;;;17.70;99.90;;;;;;5032100;28;20558;-50
2023/07/18 01:42:06;;;;;;;6.93;4.10;;;17.70;99.90;;;;;;5032138;28;20025;-50
2023/07/18 01:44:33;;;;;;;7.03;3.65;;;17.70;99.90;;;;;;5032018;28;20026;-54
2023/07/18 01:46:59;;;;;;;6.75;3.25;;;17.60;99.90;;;;;;5031910;28;20607;-50
2023/07/18 01:49:24;;;;;;;7.53;4.18;;;17.60;99.90;;;;;;5031946;28;20096;-51
2023/07/18 01:51:50;;;;;;;5.55;4.05;;;17.50;99.90;;;;;;5031971;28;20025;-50
2023/07/18 01:54:15;;;;;;;5.35;3.63;;;17.50;99.90;;;;;;5031897;28;20080;-53
2023/07/18 01:56:41;;;;;;;3.92;2.88;;;17.40;99.90;;;;;;5031443;28;20033;-53
2023/07/18 01:59:06;;;;;;;5.63;3.75;;;17.40;99.90;;;;;;5031848;28;20025;-55
2023/07/18 02:01:32;;;;;;;9.50;3.92;;;17.50;99.90;;;;;;5031845;28;20513;-55
2023/07/18 02:03:58;;;;;;;11.20;4.53;;;17.50;99.90;;;;;;5031640;28;20101;-51
2023/07/18 02:06:24;;;;;;;5.78;3.75;;;17.50;99.90;;;;;;5031419;28;20064;-52
2023/07/18 02:08:51;;;;;;;9.68;3.80;;;17.50;99.90;;;;;;5030297;28;20036;-56
2023/07/18 02:11:17;;;;;;;8.93;3.70;;;17.50;99.90;;;;;;5031703;28;20052;-54
2023/07/18 02:13:43;;;;;;;4.32;3.42;;;17.50;99.90;;;;;;5031903;28;20037;-52
2023/07/18 02:16:08;;;;;;;9.70;3.88;;;17.40;99.90;;;;;;5031238;28;20532;-53
2023/07/18 02:18:34;;;;;;;5.25;3.25;;;17.40;99.90;;;;;;5030757;28;20057;-56
2023/07/18 02:20:59;;;;;;;5.38;3.67;;;17.40;99.90;;;;;;5031511;28;20104;-57
2023/07/18 02:23:25;;;;;;;6.32;3.78;;;17.40;99.90;;;;;;5031639;28;20026;-52
2023/07/18 02:25:50;;;;;;;6.03;3.30;;;17.40;99.90;;;;;;5031447;28;20576;-52
2023/07/18 02:28:16;;;;;;;4.75;3.30;;;17.30;99.90;;;;;;5031175;28;20060;-50
2023/07/18 02:30:42;;;;;;;4.55;3.42;;;17.30;99.90;;;;;;5031287;28;20057;-51
2023/07/18 02:33:08;;;;;;;4.22;3.53;;;17.30;99.90;;;;;;5031848;28;20428;-54
2023/07/18 02:35:33;;;;;;;5.97;3.10;;;17.30;99.90;;;;;;5031265;28;20025;-51
2023/07/18 02:37:59;;;;;;;9.55;3.45;;;17.20;99.90;;;;;;5031051;28;20411;-53
2023/07/18 02:40:24;;;;;;;4.95;3.55;;;17.20;99.90;;;;;;5031328;28;20112;-53
2023/07/18 02:42:50;;;;;;;8.73;3.63;;;17.20;99.90;;;;;;5031203;28;20067;-54
2023/07/18 02:45:15;;;;;;;6.32;3.22;;;17.00;99.90;;;;;;5031186;28;20036;-52
2023/07/18 02:47:41;;;;;;;7.43;4.13;;;16.90;99.90;;;;;;5030719;28;20033;-56
2023/07/18 02:50:08;;;;;;;5.88;4.80;;;16.70;99.90;;;;;;5031141;28;20032;-54
2023/07/18 02:52:33;;;;;;;5.75;4.00;;;16.60;99.90;;;;;;5031208;28;20040;-52
2023/07/18 02:54:59;;;;;;;4.25;3.45;;;16.50;99.90;;;;;;5031052;28;20029;-54
2023/07/18 02:57:25;;;;;;;6.95;3.97;;;16.40;99.90;;;;;;5030776;28;20393;-54
2023/07/18 02:59:50;;;;;;;14.57;3.72;;;16.40;99.90;;;;;;5031089;28;20022;-54
2023/07/18 03:02:16;;;;;;;7.75;3.88;;;16.30;99.90;;;;;;5031253;28;20060;-53
2023/07/18 03:04:42;;;;;;;6.68;4.45;;;16.30;99.90;;;;;;5030971;28;20025;-53
2023/07/18 03:07:07;;;;;;;8.13;4.00;;;16.30;99.90;;;;;;5029348;28;20021;-55
2023/07/18 03:09:34;;;;;;;6.60;3.50;;;16.30;99.90;;;;;;5031219;28;20021;-55
2023/07/18 03:12:01;;;;;;;5.07;3.25;;;16.30;99.90;;;;;;5031038;28;20017;-53
2023/07/18 03:14:27;;;;;;;8.98;4.35;;;16.30;99.90;;;;;;5030924;28;20440;-52
2023/07/18 03:16:52;;;;;;;6.32;3.85;;;16.30;99.90;;;;;;5030279;28;20033;-55
2023/07/18 03:19:17;;;;;;;7.03;3.72;;;16.30;99.90;;;;;;5030760;28;20583;-53
2023/07/18 03:21:43;;;;;;;9.07;3.83;;;16.20;99.90;;;;;;5029524;28;20030;-54
2023/07/18 03:24:09;;;;;;;7.13;4.13;;;16.20;99.90;;;;;;5030829;28;20030;-54
2023/07/18 03:26:38;;;;;;;5.60;3.58;;;16.20;99.90;;;;;;5030541;28;20029;-54
2023/07/18 03:29:07;;;;;;;5.05;3.88;;;16.20;99.90;;;;;;5030739;28;20025;-56
2023/07/18 03:31:33;;;;;;;6.32;3.85;;;16.20;99.90;;;;;;5033611;28;20029;-52
2023/07/18 03:34:00;;;;;;;9.57;4.47;;;16.20;99.90;;;;;;5034700;28;20175;-53
2023/07/18 03:36:26;;;;;;;6.38;4.15;;;16.20;99.90;;;;;;5034103;28;20021;-50
2023/07/18 03:38:52;;;;;;;6.93;3.92;;;16.10;99.90;;;;;;5034574;28;20029;-54
2023/07/18 03:41:17;;;;;;;7.07;3.72;;;16.10;99.90;;;;;;5034891;28;20057;-50
2023/07/18 03:43:43;;;;;;;9.43;3.92;;;16.00;99.90;;;;;;5034407;28;20026;-50
2023/07/18 03:46:08;;;;;;;7.97;4.82;;;16.00;99.90;;;;;;5034246;28;20126;-55
2023/07/18 03:48:34;;;;;;;7.50;4.07;;;16.00;99.90;;;;;;5034743;28;20575;-51
2023/07/18 03:51:04;;;;;;;8.70;3.85;;;16.00;99.90;;;;;;5034327;28;20018;-52
2023/07/18 03:53:30;;;;;;;4.80;3.60;;;16.10;99.90;;;;;;5034093;28;20029;-52
2023/07/18 03:56:04;;;;;;;9.65;4.63;;;16.10;99.90;;;;;;5033818;28;20397;-51
2023/07/18 03:58:30;;;;;;;7.15;4.15;;;16.00;99.90;;;;;;5032776;28;20503;-51
2023/07/18 04:00:55;;;;;;;7.50;3.70;;;16.00;99.90;;;;;;5034283;28;20104;-53
2023/07/18 04:03:21;;;;;;;9.75;3.60;;;16.00;99.90;;;;;;5034033;28;20030;-53
2023/07/18 04:05:47;;;;;;;9.18;4.18;;;15.90;99.90;;;;;;5033755;28;20079;-51
2023/07/18 04:08:12;;;;;;;7.78;3.40;;;15.90;99.90;;;;;;5033547;28;20025;-54
2023/07/18 04:10:38;;;;;;;6.25;4.15;;;15.90;99.90;;;;;;5033730;28;20041;-52
2023/07/18 04:13:03;;;;;;;6.93;4.20;;;15.90;99.90;;;;;;5033894;28;20091;-54
2023/07/18 04:15:29;;;;;;;8.45;4.28;;;15.90;99.90;;;;;;5033513;28;20117;-52
2023/07/18 04:17:54;;;;;;;6.13;3.72;;;15.90;99.90;;;;;;5032954;28;20037;-51
2023/07/18 04:20:20;;;;;;;14.80;3.88;;;15.90;99.90;;;;;;5033464;28;20034;-52
2023/07/18 04:22:45;;;;;;;5.45;3.33;;;16.00;99.90;;;;;;5033511;28;20026;-53
2023/07/18 04:25:11;;;;;;;6.20;3.95;;;16.00;99.90;;;;;;5033418;28;20508;-50
2023/07/18 04:27:36;;;;;;;6.35;4.00;;;16.00;99.90;;;;;;5033289;28;20049;-51
2023/07/18 04:30:03;;;;;;;6.05;4.38;;;16.10;99.90;;;;;;5033502;28;20025;-53
2023/07/18 04:32:29;;;;;;;7.88;4.00;;;16.20;99.90;;;;;;5033490;28;20048;-54
2023/07/18 04:34:54;;;;;;;6.97;4.22;;;16.20;99.90;;;;;;5033268;28;20034;-53
2023/07/18 04:37:20;;;;;;;8.63;4.10;;;16.30;99.90;;;;;;5032922;28;20033;-50
2023/07/18 04:39:46;;;;;;;10.45;4.35;;;16.40;99.90;;;;;;5033271;28;20021;-52
2023/07/18 04:42:11;;;;;;;5.80;3.97;;;16.50;99.90;;;;;;5032910;28;20026;-54
2023/07/18 04:44:37;;;;;;;5.35;3.70;;;16.70;99.90;;;;;;5033193;28;20022;-53
2023/07/18 04:47:03;;;;;;;7.00;3.53;;;16.80;99.90;;;;;;5032849;28;20096;-51
2023/07/18 04:49:29;;;;;;;5.68;3.67;;;16.80;99.90;;;;;;5033043;28;20022;-55
2023/07/18 04:51:55;;;;;;;6.63;4.10;;;16.90;99.90;;;;;;5032973;28;20017;-53
2023/07/18 04:54:20;;;;;;;8.75;3.88;;;17.00;99.90;;;;;;5032799;28;20087;-50
2023/07/18 04:56:46;;;;;;;24.98;6.40;;;17.20;99.90;;;;;;5031431;28;20028;-50
2023/07/18 04:59:11;;;;;;;8.95;4.45;;;17.50;99.90;;;;;;5032767;28;20392;-51
2023/07/18 05:01:39;;;;;;;7.38;3.97;;;17.90;99.90;;;;;;5032798;28;20065;-51
2023/07/18 05:04:05;;;;;;;5.80;3.67;;;18.50;99.90;;;;;;5032742;28;20523;-50
2023/07/18 05:06:30;;;;;;;13.43;5.15;;;19.20;99.90;;;;;;5032267;28;20061;-50
2023/07/18 05:08:56;;;;;;;8.35;3.75;;;19.90;99.90;;;;;;5032600;28;20030;-50
2023/07/18 05:11:21;;;;;;;7.82;3.78;;;20.60;99.90;;;;;;5032585;28;20041;-54
2023/07/18 05:13:47;;;;;;;6.72;3.95;;;21.50;99.90;;;;;;5032609;28;20465;-53
2023/07/18 05:16:12;;;;;;;6.70;3.85;;;22.20;99.30;;;;;;5032229;28;20065;-50
2023/07/18 05:18:38;;;;;;;5.20;3.65;;;22.80;97.90;;;;;;5031989;28;20030;-54
2023/07/18 05:21:03;;;;;;;4.57;3.28;;;23.10;97.30;;;;;;5032409;28;20040;-51
2023/07/18 05:23:29;;;;;;;8.10;3.42;;;23.60;96.60;;;;;;5031128;28;20018;-51
2023/07/18 05:25:56;;;;;;;4.70;2.88;;;24.10;95.60;;;;;;5032218;28;20021;-50
2023/07/18 05:28:22;;;;;;;5.82;3.40;;;24.50;94.60;;;;;;5030984;28;20025;-55
2023/07/18 05:30:47;;;;;;;11.43;4.80;;;25.00;93.60;;;;;;5032419;28;20386;-55
2023/07/18 05:33:13;;;;;;;3.75;2.90;;;25.40;92.70;;;;;;5032132;28;20037;-55
2023/07/18 05:35:38;;;;;;;7.32;3.65;;;25.60;92.20;;;;;;5032096;28;20053;-55
2023/07/18 05:38:04;;;;;;;4.63;3.70;;;26.00;91.60;;;;;;5031808;28;20067;-51
2023/07/18 05:40:29;;;;;;;5.35;3.15;;;26.30;91.50;;;;;;5032495;28;20068;-54
2023/07/18 05:42:55;;;;;;;5.72;3.30;;;26.50;90.60;;;;;;5032489;28;20473;-54
2023/07/18 05:45:21;;;;;;;4.47;3.25;;;26.20;90.20;;;;;;5032008;28;20037;-54
2023/07/18 05:47:46;;;;;;;6.57;3.53;;;26.30;90.30;;;;;;5031614;28;20026;-52
2023/07/18 05:50:12;;;;;;;6.88;3.40;;;26.50;90.40;;;;;;5031893;28;20469;-55
2023/07/18 05:52:38;;;;;;;4.35;3.10;;;27.00;89.30;;;;;;5031861;28;20061;-53
2023/07/18 05:55:04;;;;;;;6.22;2.83;;;27.40;87.40;;;;;;5031577;28;20083;-55
2023/07/18 05:57:30;;;;;;;7.57;3.65;;;27.70;86.70;;;;;;5031798;28;20021;-57
2023/07/18 05:59:56;;;;;;;6.85;3.08;;;27.30;86.90;;;;;;5031974;28;20017;-57
2023/07/18 06:02:21;;;;;;;9.15;4.13;;;27.70;85.50;;;;;;5031825;28;20033;-56
2023/07/18 06:04:47;;;;;;;6.38;2.80;;;28.10;84.50;;;;;;5031939;28;20024;-54
2023/07/18 06:07:14;;;;;;;4.40;2.75;;;28.30;83.10;;;;;;5031267;28;20033;-52
2023/07/18 06:09:40;;;;;;;8.45;3.28;;;28.70;82.60;;;;;;5031898;28;20029;-52
2023/07/18 06:12:06;;;;;;;4.03;2.63;;;28.30;82.40;;;;;;5032149;28;20407;-53
2023/07/18 06:14:33;;;;;;;6.65;2.85;;;28.20;81.90;;;;;;5031868;28;20021;-51
2023/07/18 06:16:58;;;;;;;5.22;3.25;;;28.20;83.10;;;;;;5031266;28;20057;-53
2023/07/18 06:19:24;;;;;;;3.92;2.90;;;28.50;82.20;;;;;;5031683;28;20493;-57
2023/07/18 06:21:49;;;;;;;6.57;3.70;;;28.60;82.00;;;;;;5031981;28;20076;-52
2023/07/18 06:24:16;;;;;;;3.25;2.58;;;29.20;80.30;;;;;;5031900;28;20030;-53
2023/07/18 06:26:48;;;;;;;7.15;3.10;;;29.70;79.40;;;;;;5031573;28;20443;-55
2023/07/18 06:29:17;;;;;;;3.53;2.63;;;30.50;78.90;;;;;;5030193;28;20037;-54
2023/07/18 06:31:44;;;;;;;4.00;2.95;;;31.00;75.40;;;;;;5032188;28;20089;-53
2023/07/18 06:34:09;;;;;;;3.88;2.15;;;31.20;74.40;;;;;;5031628;28;20040;-51
2023/07/18 06:36:35;;;;;;;3.08;2.45;;;31.50;72.60;;;;;;5031139;28;20481;-56
2023/07/18 06:39:00;;;;;;;4.50;2.60;;;31.20;73.70;;;;;;5030184;28;20025;-54
2023/07/18 06:41:26;;;;;;;3.95;2.90;;;31.10;72.50;;;;;;5031522;28;20018;-56
2023/07/18 06:43:52;;;;;;;3.70;2.28;;;30.90;72.30;;;;;;5031386;28;20032;-53
2023/07/18 06:46:17;;;;;;;8.27;2.90;;;31.10;72.10;;;;;;5029883;28;20029;-54
2023/07/18 06:48:43;;;;;;;3.03;2.40;;;31.20;72.00;;;;;;5031283;28;20037;-53
2023/07/18 06:51:08;;;;;;;4.63;2.47;;;31.40;71.00;;;;;;5031225;28;20057;-53
2023/07/18 06:53:34;;;;;;;9.05;2.75;;;31.20;70.80;;;;;;5031242;28;20045;-53
2023/07/18 06:55:59;;;;;;;4.80;2.85;;;31.00;70.90;;;;;;5030847;28;20431;-48
2023/07/18 06:58:25;;;;;;;3.78;2.35;;;31.30;70.20;;;;;;5031034;28;20017;-52
2023/07/18 07:00:51;;;;;;;3.40;2.30;;;31.60;70.30;;;;;;5031203;28;20032;-52
2023/07/18 07:03:16;;;;;;;9.48;3.65;;;31.70;69.50;;;;;;5031043;28;20025;-53
2023/07/18 07:05:43;;;;;;;10.23;2.90;;;31.80;68.50;;;;;;5034025;28;20031;-55
2023/07/18 07:08:09;;;;;;;6.00;2.38;;;32.00;67.80;;;;;;5034577;28;20028;-52
2023/07/18 07:10:36;;;;;;;7.28;2.38;;;31.30;68.60;;;;;;5035224;28;20427;-54
2023/07/18 07:13:02;;;;;;;3.53;2.20;;;31.60;68.20;;;;;;5034925;28;20243;-56
2023/07/18 07:15:27;;;;;;;6.47;2.30;;;31.40;68.00;;;;;;5034970;28;20037;-55
2023/07/18 07:17:53;;;;;;;2.75;2.10;;;31.70;67.20;;;;;;5034148;28;20028;-52
2023/07/18 07:20:19;;;;;;;11.75;2.70;;;31.90;66.60;;;;;;5034713;28;20041;-53
2023/07/18 07:22:47;;;;;;;4.65;1.80;;;31.70;66.60;;;;;;5034905;28;20013;-52
2023/07/18 07:25:14;;;;;;;9.60;2.22;;;31.90;65.90;;;;;;5034623;28;20109;-50
2023/07/18 07:27:43;;;;;;;2.03;1.83;;;32.10;65.80;;;;;;5034366;28;20109;-53
2023/07/18 07:30:10;;;;;;;3.85;2.28;;;32.10;65.70;;;;;;5034689;28;20025;-51
2023/07/18 07:32:35;;;;;;;7.38;1.95;;;31.80;65.10;;;;;;5034414;28;20026;-50
2023/07/18 07:35:01;;;;;;;6.55;2.92;;;32.20;64.90;;;;;;5034402;28;20034;-51
2023/07/18 07:37:26;;;;;;;2.88;1.88;;;32.10;64.30;;;;;;5034054;28;20029;-51
2023/07/18 07:39:52;;;;;;;14.30;4.10;;;31.60;64.40;;;;;;5034552;28;20026;-53
2023/07/18 07:42:17;;;;;;;4.45;2.08;;;31.90;65.20;;;;;;5034523;28;20116;-52
2023/07/18 07:44:45;;;;;;;4.18;1.90;;;32.20;64.30;;;;;;5034256;28;20396;-52
2023/07/18 07:47:10;;;;;;;3.35;1.73;;;32.60;62.30;;;;;;5033907;28;20030;-50
2023/07/18 07:49:36;;;;;;;4.13;1.85;;;32.50;62.50;;;;;;5034196;28;20473;-53
2023/07/18 07:52:01;;;;;;;3.70;1.70;;;31.60;61.50;;;;;;5034221;28;20045;-53
2023/07/18 07:54:27;;;;;;;5.20;2.00;;;31.60;62.00;;;;;;5034179;28;20381;-53
2023/07/18 07:56:52;;;;;;;5.80;1.80;;;31.30;61.90;;;;;;5033781;28;20044;-53
2023/07/18 07:59:18;;;;;;;4.47;1.83;;;30.70;63.10;;;;;;5034119;28;20432;-53
2023/07/18 08:01:43;;;;;;;4.55;2.42;;;30.30;63.20;;;;;;5034097;28;20029;-57
2023/07/18 08:04:10;;;;;;;3.85;2.35;;;30.60;63.50;;;;;;5034101;28;20030;-56
2023/07/18 08:06:35;;;;;;;1.95;1.70;;;31.00;63.50;;;;;;5032324;28;20507;-56
2023/07/18 08:09:02;;;;;;;3.58;1.80;;;31.90;61.50;;;;;;5034134;28;20034;-54
2023/07/18 08:11:28;;;;;;;7.80;1.50;;;31.80;61.60;;;;;;5033965;28;20025;-56
2023/07/18 08:13:53;;;;;;;4.28;1.80;;;32.50;61.00;;;;;;5033984;28;20025;-53
2023/07/18 08:16:20;;;;;;;5.00;1.50;;;32.80;60.80;;;;;;5032818;28;20104;-53
2023/07/18 08:18:45;;;;;;;3.35;1.75;;;33.30;59.90;;;;;;5033377;28;20052;-55
2023/07/18 08:21:11;;;;;;;10.00;2.00;;;33.80;59.20;;;;;;5033929;28;20025;-57
2023/07/18 08:23:36;;;;;;;3.70;2.10;;;33.90;58.00;;;;;;5033619;28;20048;-53
2023/07/18 08:26:02;;;;;;;1.98;1.83;;;32.60;58.70;;;;;;5033418;28;20025;-58
2023/07/18 08:28:28;;;;;;;3.25;1.85;;;31.70;60.30;;;;;;5033526;28;20021;-55
2023/07/18 08:30:53;;;;;;;2.83;1.80;;;31.90;61.30;;;;;;5033577;28;20031;-54
2023/07/18 08:33:19;;;;;;;6.95;2.17;;;32.20;60.60;;;;;;5032027;28;20396;-55
2023/07/18 08:35:45;;;;;;;2.67;1.95;;;32.10;60.00;;;;;;5033342;28;20072;-53
2023/07/18 08:38:11;;;;;;;3.08;2.08;;;31.70;60.60;;;;;;5033141;28;20048;-54
2023/07/18 08:40:42;;;;;;;3.92;2.20;;;31.30;61.10;;;;;;5033335;28;20357;-52
2023/07/18 08:43:13;;;;;;;4.57;1.95;;;31.30;61.50;;;;;;5033393;28;20045;-54
2023/07/18 08:45:39;;;;;;;5.82;2.55;;;30.60;61.80;;;;;;5033148;28;20033;-56
2023/07/18 08:48:05;;;;;;;3.30;1.85;;;30.30;62.80;;;;;;5032903;28;20033;-57
2023/07/18 08:50:32;;;;;;;6.80;2.08;;;29.90;63.40;;;;;;5033290;28;20489;-57
2023/07/18 08:52:58;;;;;;;5.47;2.80;;;30.10;62.50;;;;;;5033462;28;20032;-55
2023/07/18 08:55:23;;;;;;;4.95;2.00;;;30.30;63.80;;;;;;5032983;28;20101;-54
2023/07/18 08:57:50;;;;;;;3.78;2.30;;;30.30;62.80;;;;;;5032703;28;20083;-53
2023/07/18 09:00:20;;;;;;;2.95;2.10;;;30.40;63.80;;;;;;5032962;28;20045;-56
2023/07/18 09:02:48;;;;;;;2.60;1.92;;;30.40;62.90;;;;;;5033109;28;20022;-56
2023/07/18 09:05:31;;;;;;;3.17;1.63;;;30.20;62.10;;;;;;5032794;28;20394;-56
2023/07/18 09:07:58;;;;;;;4.40;1.70;;;30.10;62.40;;;;;;5031543;28;20370;-56
2023/07/18 09:10:23;;;;;;;4.82;1.77;;;30.30;62.50;;;;;;5032716;28;20042;-53
2023/07/18 09:12:49;;;;;;;4.60;2.08;;;30.50;62.10;;;;;;5032525;28;20396;-57
2023/07/18 09:15:21;;;;;;;2.65;1.55;;;30.70;60.90;;;;;;5032555;28;20025;-55
2023/07/18 09:17:58;;;;;;;3.55;1.85;;;31.00;61.60;;;;;;5031963;28;20028;-55
2023/07/18 09:20:25;;;;;;;1.83;1.60;;;31.00;60.30;;;;;;5032426;28;20033;-53
2023/07/18 09:22:58;;;;;;;4.30;1.90;;;31.10;60.90;;;;;;5032441;28;20021;-53
2023/07/18 09:25:25;;;;;;;9.07;2.10;;;31.10;60.80;;;;;;5032462;28;20063;-56
2023/07/18 09:27:52;;;;;;;5.55;1.85;;;30.90;60.70;;;;;;5030884;28;20029;-57
2023/07/18 09:30:34;;;;;;;3.63;1.95;;;30.60;61.60;;;;;;5032414;28;20021;-54
2023/07/18 09:33:03;;;;;;;5.65;1.92;;;30.10;62.20;;;;;;5032344;28;20029;-54
2023/07/18 09:35:29;;;;;;;3.55;1.92;;;30.10;62.00;;;;;;5032218;28;20418;-55
2023/07/18 09:37:55;;;;;;;4.78;2.00;;;30.10;61.30;;;;;;5031981;28;20096;-52
2023/07/18 09:40:21;;;;;;;4.03;1.77;;;29.70;59.40;;;;;;5032232;28;20034;-53
2023/07/18 09:42:49;;;;;;;5.03;1.83;;;29.60;61.30;;;;;;5030862;28;20393;-56
2023/07/18 09:45:16;;;;;;;9.35;2.15;;;29.70;61.50;;;;;;5031978;28;20037;-53
2023/07/18 09:47:43;;;;;;;5.93;1.90;;;29.90;62.30;;;;;;5030624;28;20404;-58
2023/07/18 09:50:12;;;;;;;3.90;1.98;;;29.90;61.00;;;;;;5032072;28;20037;-55
2023/07/18 09:52:49;;;;;;;3.72;2.00;;;29.20;61.60;;;;;;5032141;28;20069;-55
2023/07/18 09:55:22;;;;;;;2.17;1.75;;;29.30;62.10;;;;;;5031839;28;20044;-54
2023/07/18 09:57:49;;;;;;;2.35;1.63;;;29.30;62.00;;;;;;5031604;28;20022;-55
2023/07/18 10:00:15;;;;;;;3.63;1.58;;;29.50;61.90;;;;;;5031910;28;20519;-56
2023/07/18 10:02:42;;;;;;;3.03;1.90;;;29.40;62.00;;;;;;5031884;28;20049;-54
2023/07/18 10:05:09;;;;;;;7.43;1.77;;;29.40;62.20;;;;;;5031912;28;20029;-53
2023/07/18 10:07:37;;;;;;;4.80;1.85;;;29.60;62.70;;;;;;5031404;28;20104;-54
2023/07/18 10:10:07;;;;;;;6.30;2.72;;;29.70;61.80;;;;;;5031783;28;20540;-53
2023/07/18 10:12:54;;;;;;;4.35;2.08;;;29.40;62.20;;;;;;5031677;28;20407;-56
2023/07/18 10:15:20;;;;;;;5.28;1.65;;;29.20;62.70;;;;;;5031758;28;20076;-54
2023/07/18 10:17:47;;;;;;;7.38;1.90;;;28.80;62.90;;;;;;5031354;28;20496;-55
2023/07/18 10:20:24;;;;;;;2.92;2.13;;;28.90;62.50;;;;;;5030114;28;20033;-55
2023/07/18 10:22:57;;;;;;;4.28;2.10;;;28.80;62.80;;;;;;5031495;28;20030;-55
2023/07/18 10:25:26;;;;;;;3.92;2.28;;;28.90;63.70;;;;;;5031395;28;20034;-55
2023/07/18 10:27:52;;;;;;;3.30;2.22;;;28.80;63.70;;;;;;5031382;28;20411;-52
2023/07/18 10:30:20;;;;;;;4.38;1.90;;;28.70;65.00;;;;;;5031624;28;20024;-52
2023/07/18 10:32:55;;;;;;;3.60;1.80;;;28.70;64.00;;;;;;5031750;28;20080;-53
2023/07/18 10:35:24;;;;;;;4.70;1.85;;;28.60;64.00;;;;;;5031576;28;20408;-55
2023/07/18 10:37:52;;;;;;;4.45;2.00;;;28.40;63.90;;;;;;5031333;28;20495;-57
2023/07/18 10:40:39;;;;;;;3.50;1.90;;;28.30;63.40;;;;;;5036105;28;20056;-56
2023/07/18 10:43:20;;;;;;;1.63;1.52;;;28.30;63.60;;;;;;5037905;28;20499;-56
2023/07/18 10:45:45;;;;;;;3.25;1.83;;;28.20;63.80;;;;;;5037896;28;20109;-54
2023/07/18 10:48:16;;;;;;;2.25;1.73;;;28.50;64.30;;;;;;5037765;28;20336;-52
2023/07/18 10:50:43;;;;;;;2.80;1.80;;;28.50;63.50;;;;;;5037923;28;20072;-54
2023/07/18 10:53:18;;;;;;;2.75;1.70;;;28.60;63.40;;;;;;5038177;28;20104;-52
2023/07/18 10:55:46;;;;;;;6.63;1.60;;;28.70;63.70;;;;;;5037781;28;20018;-54
2023/07/18 10:58:19;;;;;;;3.78;1.80;;;28.80;63.10;;;;;;5037510;28;20035;-55
2023/07/18 11:00:46;;;;;;;2.15;1.95;;;28.70;62.80;;;;;;5037954;28;20024;-52
2023/07/18 11:03:34;;;;;;;5.22;2.13;;;28.80;62.50;;;;;;5037892;28;20453;-55
2023/07/18 11:06:06;;;;;;;3.13;1.45;;;28.70;63.00;;;;;;5037663;28;20027;-54
2023/07/18 11:08:32;;;;;;;2.00;1.80;;;28.60;63.80;;;;;;5037833;28;20033;-54
2023/07/18 11:11:00;;;;;;;5.05;1.85;;;28.40;63.00;;;;;;5037689;28;20392;-53
2023/07/18 11:13:34;;;;;;;6.40;2.38;;;28.10;64.40;;;;;;5037729;28;20439;-51
2023/07/18 11:16:06;;;;;;;3.47;1.90;;;27.90;63.70;;;;;;5037281;28;20034;-52
2023/07/18 11:18:37;;;;;;;3.30;1.50;;;27.50;65.60;;;;;;5037085;28;20040;-52
2023/07/18 11:21:06;;;;;;;4.03;1.90;;;27.20;65.40;;;;;;5037914;28;20029;-51
2023/07/18 11:23:34;;;;;;;2.03;1.60;;;27.10;66.20;;;;;;5037540;28;20053;-53
2023/07/18 11:26:00;;;;;;;6.28;2.03;;;27.10;66.20;;;;;;5037386;28;20040;-55
2023/07/18 11:28:32;;;;;;;3.05;1.63;;;27.10;66.70;;;;;;5037529;28;20484;-57
2023/07/18 11:30:58;;;;;;;3.97;1.90;;;27.10;66.30;;;;;;5037593;28;20036;-55
2023/07/18 11:33:28;;;;;;;5.07;1.95;;;27.10;65.40;;;;;;5037489;28;20029;-55
2023/07/18 11:35:53;;;;;;;3.83;1.70;;;27.00;64.50;;;;;;5037645;28;20061;-52
2023/07/18 11:38:21;;;;;;;4.68;1.85;;;26.80;65.60;;;;;;5035851;28;20095;-54
2023/07/18 11:40:47;;;;;;;2.50;1.75;;;26.90;66.00;;;;;;5037478;28;20071;-56
2023/07/18 11:43:18;;;;;;;2.53;1.85;;;26.90;66.60;;;;;;5037464;28;20057;-54
2023/07/18 11:45:46;;;;;;;3.20;2.15;;;26.90;66.60;;;;;;5037406;28;20037;-52
2023/07/18 11:48:12;;;;;;;2.90;1.70;;;26.90;66.10;;;;;;5035911;28;20517;-54
2023/07/18 11:50:42;;;;;;;10.85;2.15;;;26.80;65.70;;;;;;5035891;28;20025;-54
2023/07/18 11:53:07;;;;;;;5.53;2.03;;;26.80;66.40;;;;;;5033962;28;20025;-54
2023/07/18 11:55:33;;;;;;;3.70;1.85;;;26.80;66.50;;;;;;5034089;28;20108;-52
2023/07/18 11:57:59;;;;;;;6.05;2.10;;;26.80;66.90;;;;;;5034337;28;20124;-54
2023/07/18 12:00:25;;;;;;;5.20;1.75;;;26.80;66.90;;;;;;5034086;28;20083;-54
2023/07/18 12:02:52;;;;;;;4.40;1.60;;;26.80;66.20;;;;;;5034322;28;20113;-52
2023/07/18 12:05:17;;;;;;;5.50;2.13;;;26.90;66.50;;;;;;5032718;28;20059;-52
2023/07/18 12:07:44;;;;;;;4.30;2.22;;;26.80;66.00;;;;;;5033935;28;20496;-51
2023/07/18 12:10:10;;;;;;;2.35;2.00;;;26.80;66.60;;;;;;5033916;28;20476;-52
2023/07/18 12:12:39;;;;;;;7.45;2.00;;;26.80;67.20;;;;;;5033940;28;20056;-51
2023/07/18 12:15:05;;;;;;;7.50;1.77;;;26.70;66.40;;;;;;5032419;28;20439;-54
2023/07/18 12:17:31;;;;;;;5.18;2.78;;;26.70;67.50;;;;;;5033128;28;20512;-55
2023/07/18 12:19:56;;;;;;;5.68;1.67;;;26.80;66.80;;;;;;5033596;28;20030;-55
2023/07/18 12:22:22;;;;;;;5.97;1.70;;;26.80;67.10;;;;;;5033749;28;20365;-54
2023/07/18 12:24:47;;;;;;;1.67;1.48;;;26.80;67.80;;;;;;5033483;28;20030;-51
2023/07/18 12:27:15;;;;;;;3.33;1.90;;;26.80;67.70;;;;;;5033415;28;20067;-56
2023/07/18 12:29:42;;;;;;;2.67;2.03;;;26.80;68.20;;;;;;5033872;28;20395;-52
2023/07/18 12:32:09;;;;;;;4.00;1.73;;;26.70;67.50;;;;;;5032960;28;20566;-55
2023/07/18 12:34:38;;;;;;;6.95;1.98;;;26.80;68.30;;;;;;5032306;28;20029;-53
2023/07/18 12:37:04;;;;;;;4.20;1.70;;;26.80;67.90;;;;;;5033407;28;20045;-57
2023/07/18 12:39:30;;;;;;;3.40;1.90;;;26.80;67.40;;;;;;5033305;28;20028;-56
2023/07/18 12:41:55;;;;;;;2.03;1.63;;;26.80;67.60;;;;;;5033370;28;20096;-56
2023/07/18 12:44:21;;;;;;;3.95;1.90;;;26.80;67.50;;;;;;5033411;28;20030;-54